createdAt,value
2023-01-04T00:08:40.021Z,37.72
2023-01-04T00:18:10.592Z,37.46
2023-01-04T00:27:53.888Z,37.73
2023-01-04T00:38:34.307Z,38.72
2023-01-04T00:49:01.188Z,39.1
2023-01-04T00:59:18.210Z,39.27
2023-01-04T01:09:53.804Z,39.39
2023-01-04T01:20:21.733Z,39.39
2023-01-04T01:30:36.438Z,39.42
2023-01-04T01:40:44.192Z,39.3
2023-01-04T01:51:25.182Z,39.26
2023-01-04T02:02:03.468Z,39.17
2023-01-04T02:12:39.268Z,39.22
2023-01-04T02:23:00.147Z,38.37
2023-01-04T02:33:06.320Z,38.15
2023-01-04T02:43:16.029Z,37.93
2023-01-04T02:53:15.302Z,38.07
2023-01-04T03:04:00.864Z,38.4
2023-01-04T03:14:31.234Z,37.64
2023-01-04T03:24:32.819Z,37.16
2023-01-04T03:34:27.601Z,37.29
2023-01-04T03:44:39.266Z,37.41
2023-01-04T03:54:47.685Z,37.57
2023-01-04T04:04:28.009Z,37.38
2023-01-04T04:14:14.492Z,38.06
2023-01-04T04:23:46.473Z,37.86
2023-01-04T04:33:13.610Z,38
2023-01-04T04:42:38.600Z,37.2
2023-01-04T04:52:07.329Z,35.64
2023-01-04T05:01:35.916Z,35.77
2023-01-04T05:11:03.829Z,35.72
2023-01-04T05:20:31.020Z,36.14
2023-01-04T05:29:55.752Z,36.12
2023-01-04T05:39:25.232Z,36.65
2023-01-04T05:48:54.325Z,37.01
2023-01-04T05:58:19.744Z,37.19
2023-01-04T06:07:48.448Z,37.56
2023-01-04T06:17:13.840Z,37.62
2023-01-04T06:26:42.499Z,36.15
2023-01-04T06:36:19.703Z,34.6
2023-01-04T06:45:47.450Z,34.21
2023-01-04T06:55:18.420Z,34.3
2023-01-04T07:04:52.335Z,34.02
2023-01-04T07:14:17.766Z,33.86
2023-01-04T07:23:48.934Z,33.85
2023-01-04T07:33:20.468Z,34.22
2023-01-04T07:42:46.729Z,34.68
2023-01-04T07:52:14.922Z,34.94
2023-01-04T08:01:41.177Z,35.22
2023-01-04T08:11:06.393Z,35.56
2023-01-04T08:20:31.160Z,36.52
2023-01-04T08:29:59.777Z,36.69
2023-01-04T08:39:34.017Z,36.68
2023-01-04T08:49:05.156Z,36.14
2023-01-04T08:58:37.861Z,36.34
2023-01-04T09:08:06.516Z,36.89
2023-01-04T09:18:05.026Z,36.46
2023-01-04T09:27:20.646Z,36.61
2023-01-04T09:36:50.490Z,36.84
2023-01-04T09:46:35.197Z,36.97
2023-01-04T09:56:37.928Z,36.63
2023-01-04T10:06:27.281Z,36.84
2023-01-04T10:16:44.594Z,36.83
2023-01-04T10:26:41.115Z,36.93
2023-01-04T10:36:41.811Z,37.19
2023-01-04T10:46:43.888Z,37.33
2023-01-04T10:56:50.872Z,37.07
2023-01-04T11:07:01.533Z,37.4
2023-01-04T11:16:51.011Z,37.5
2023-01-04T11:26:38.821Z,37.52
2023-01-04T11:36:50.117Z,37.46
2023-01-04T11:46:49.817Z,37.37
2023-01-04T11:56:26.073Z,37.56
2023-01-04T12:06:15.620Z,37.55
2023-01-04T12:16:09.614Z,37.54
2023-01-04T12:26:10.649Z,37.45
2023-01-04T12:36:08.238Z,37.48
2023-01-04T12:45:48.034Z,37.56
2023-01-04T12:55:44.365Z,37.61
2023-01-04T13:05:59.296Z,37.37
2023-01-04T13:15:54.732Z,37.6
2023-01-04T13:25:43.633Z,37.13
2023-01-04T13:35:32.754Z,36.72
2023-01-04T13:45:21.300Z,37.22
2023-01-04T13:55:15.261Z,37
2023-01-04T14:05:07.680Z,36.93
2023-01-04T14:15:14.861Z,37.15
2023-01-04T14:25:14.873Z,37.04
2023-01-04T14:35:09.999Z,36.88
2023-01-04T14:44:43.443Z,37.15
2023-01-04T14:54:24.192Z,37.12
2023-01-04T15:03:51.779Z,37.16
2023-01-04T15:13:21.107Z,37.18
2023-01-04T15:22:46.885Z,37.49
2023-01-04T15:32:13.229Z,37.55
2023-01-04T15:41:42.977Z,37.26
2023-01-04T15:51:15.703Z,37.44
2023-01-04T16:01:10.290Z,37.94
2023-01-04T16:11:44.477Z,38.48
2023-01-04T16:22:26.698Z,38.72
2023-01-04T16:33:07.242Z,38.94
2023-01-04T16:43:45.323Z,38.67
2023-01-04T16:54:28.158Z,38.35
2023-01-04T17:05:13.279Z,38.6
2023-01-04T17:15:53.903Z,38.67
2023-01-04T17:26:31.285Z,38.79
2023-01-04T17:37:06.353Z,39.1
2023-01-04T17:47:36.331Z,39.1
2023-01-04T17:58:21.706Z,39.26
2023-01-04T18:08:58.322Z,39.42
2023-01-04T18:19:39.170Z,39.41
2023-01-04T18:30:11.713Z,39.32
2023-01-04T18:41:01.717Z,39.27
2023-01-04T18:50:32.832Z,39.27
2023-01-04T18:58:04.546Z,39.21
2023-01-04T19:05:46.292Z,39.21
2023-01-04T19:13:33.667Z,39.21
2023-01-04T19:21:19.081Z,39.21
2023-01-04T19:29:05.622Z,39.16
2023-01-04T19:36:57.305Z,39.21
2023-01-04T19:44:47.074Z,39.15
2023-01-04T19:52:32.750Z,39.15
2023-01-04T20:00:01.855Z,39.19
2023-01-04T20:07:48.476Z,39.27
2023-01-04T20:15:42.817Z,39.16
2023-01-04T20:23:27.836Z,39.34
2023-01-04T20:31:09.641Z,39.22
2023-01-04T20:38:50.410Z,39.3
2023-01-04T20:46:32.314Z,39.25
2023-01-04T20:54:20.516Z,39.2
2023-01-04T21:01:56.687Z,39.27
2023-01-04T21:09:31.763Z,39.29
2023-01-04T21:17:15.129Z,39.3
2023-01-04T21:24:41.910Z,39.38
2023-01-04T21:32:21.329Z,39.37
2023-01-04T21:39:59.218Z,39.37
2023-01-04T21:47:40.287Z,39.43
2023-01-04T21:55:01.844Z,39.43
2023-01-04T22:02:46.400Z,39.48
2023-01-04T22:10:21.854Z,39.48
2023-01-04T22:17:48.587Z,39.5
2023-01-04T22:25:26.724Z,39.39
2023-01-04T22:33:17.832Z,39.38
2023-01-04T22:40:53.736Z,39.41
2023-01-04T22:48:31.794Z,39.46
2023-01-04T22:56:19.288Z,39.4
2023-01-04T23:03:52.819Z,39.39
2023-01-04T23:11:24.629Z,39.38
2023-01-04T23:19:13.781Z,39.46
2023-01-04T23:26:52.120Z,39.45
2023-01-04T23:34:39.082Z,39.45
2023-01-04T23:42:09.746Z,39.36
2023-01-04T23:49:45.420Z,39.4
2023-01-04T23:57:30.928Z,39.47
